createdAt,value
2023-04-25T00:02:26.348Z,1.35
2023-04-25T00:05:31.668Z,1.40
2023-04-25T00:08:36.139Z,1.60
2023-04-25T00:11:41.780Z,1.83
2023-04-25T00:14:46.531Z,1.50
2023-04-25T00:17:53.920Z,1.55
2023-04-25T00:20:59.058Z,1.40
2023-04-25T00:24:04.121Z,1.40
2023-04-25T00:27:08.505Z,1.30
2023-04-25T00:30:14.082Z,1.60
2023-04-25T00:33:18.242Z,1.70
2023-04-25T00:36:22.932Z,1.65
2023-04-25T00:39:27.732Z,1.45
2023-04-25T00:42:32.985Z,1.75
2023-04-25T00:45:40.382Z,1.55
2023-04-25T00:48:44.669Z,1.55
2023-04-25T00:51:49.457Z,1.50
2023-04-25T00:54:53.891Z,1.50
2023-04-25T00:57:59.255Z,1.40
2023-04-25T01:01:04.088Z,1.25
2023-04-25T01:04:08.698Z,1.83
2023-04-25T01:07:13.661Z,1.75
2023-04-25T01:10:18.101Z,1.90
2023-04-25T01:13:22.556Z,1.65
2023-04-25T01:16:29.046Z,1.73
2023-04-25T01:19:34.542Z,1.75
2023-04-25T01:22:39.553Z,1.73
2023-04-25T01:25:44.744Z,2.05
2023-04-25T01:28:50.217Z,1.83
2023-04-25T01:31:55.570Z,1.73
2023-04-25T01:35:00.447Z,2.20
2023-04-25T01:38:05.250Z,1.70
2023-04-25T01:41:12.223Z,1.65
2023-04-25T01:44:17.697Z,1.65
2023-04-25T01:47:22.514Z,1.80
2023-04-25T01:50:27.502Z,2.05
2023-04-25T01:53:32.344Z,1.80
2023-04-25T01:56:40.332Z,1.77
2023-04-25T01:59:47.962Z,1.95
2023-04-25T02:03:16.105Z,1.67
2023-04-25T02:06:20.915Z,1.70
2023-04-25T02:09:26.911Z,1.83
2023-04-25T02:12:34.293Z,1.67
2023-04-25T02:16:14.717Z,1.85
2023-04-25T02:19:18.986Z,2.55
2023-04-25T02:22:25.647Z,1.95
2023-04-25T02:25:30.688Z,1.83
2023-04-25T02:28:35.131Z,1.50
2023-04-25T02:31:43.297Z,1.90
2023-04-25T02:34:49.008Z,2.08
2023-04-25T02:37:53.671Z,2.35
2023-04-25T02:40:58.189Z,2.03
2023-04-25T02:44:04.436Z,2.08
2023-04-25T02:47:08.859Z,2.35
2023-04-25T02:50:13.340Z,1.92
2023-04-25T02:53:18.730Z,1.88
2023-04-25T02:56:27.890Z,2.30
2023-04-25T02:59:32.788Z,2.17
2023-04-25T03:02:37.612Z,2.10
2023-04-25T03:05:42.332Z,2.10
2023-04-25T03:08:47.197Z,2.67
2023-04-25T03:11:51.651Z,1.83
2023-04-25T03:14:56.943Z,1.80
2023-04-25T03:18:01.436Z,2.55
2023-04-25T03:21:05.855Z,1.90
2023-04-25T03:24:12.082Z,2.00
2023-04-25T03:27:17.044Z,2.05
2023-04-25T03:30:21.422Z,2.08
2023-04-25T03:33:26.911Z,1.65
2023-04-25T03:36:31.751Z,1.98
2023-04-25T03:39:36.173Z,2.50
2023-04-25T03:42:41.222Z,1.95
2023-04-25T03:45:47.098Z,2.08
2023-04-25T03:48:52.777Z,2.03
2023-04-25T03:52:06.224Z,2.47
2023-04-25T03:55:14.789Z,1.98
2023-04-25T03:58:19.614Z,1.90
2023-04-25T04:01:24.130Z,2.30
2023-04-25T04:04:29.265Z,2.00
2023-04-25T04:07:36.733Z,2.10
2023-04-25T04:10:41.412Z,2.10
2023-04-25T04:13:46.194Z,1.63
2023-04-25T04:16:52.631Z,2.20
2023-04-25T04:19:57.568Z,1.90
2023-04-25T04:23:02.292Z,2.60
2023-04-25T04:26:09.532Z,2.50
2023-04-25T04:29:21.698Z,2.13
2023-04-25T04:32:44.588Z,2.08
2023-04-25T04:35:49.601Z,2.00
2023-04-25T04:38:57.373Z,1.90
2023-04-25T04:42:13.636Z,2.15
2023-04-25T04:45:28.691Z,2.58
2023-04-25T04:48:54.014Z,2.50
2023-04-25T04:52:24.373Z,2.30
2023-04-25T04:55:52.308Z,2.55
2023-04-25T04:59:15.590Z,2.20
2023-04-25T05:02:28.453Z,2.40
2023-04-25T05:06:06.415Z,2.45
2023-04-25T05:09:22.153Z,2.35
2023-04-25T05:12:52.732Z,1.98
2023-04-25T05:16:09.544Z,2.20
2023-04-25T05:19:27.530Z,2.20
2023-04-25T05:22:51.147Z,2.25
2023-04-25T05:26:00.650Z,2.47
2023-04-25T05:29:13.608Z,2.30
2023-04-25T05:32:38.683Z,2.50
2023-04-25T05:35:43.529Z,2.42
2023-04-25T05:38:49.504Z,2.58
2023-04-25T05:41:59.748Z,1.77
2023-04-25T05:45:30.569Z,1.80
2023-04-25T05:49:04.284Z,2.40
2023-04-25T05:52:21.044Z,2.30
2023-04-25T05:55:30.734Z,2.08
2023-04-25T05:58:37.355Z,2.40
2023-04-25T06:01:43.154Z,2.30
2023-04-25T06:04:49.249Z,2.40
2023-04-25T06:07:54.007Z,2.22
2023-04-25T06:10:58.859Z,2.10
2023-04-25T06:14:03.848Z,2.05
2023-04-25T06:17:11.371Z,1.80
2023-04-25T06:20:16.035Z,2.15
2023-04-25T06:23:20.384Z,1.88
2023-04-25T06:26:45.372Z,1.63
2023-04-25T06:29:50.617Z,1.73
2023-04-25T06:32:55.239Z,1.65
2023-04-25T06:36:00.513Z,1.42
2023-04-25T06:39:05.955Z,1.27
2023-04-25T06:42:11.865Z,1.20
2023-04-25T06:45:25.601Z,1.42
2023-04-25T06:48:31.143Z,1.35
2023-04-25T06:51:37.308Z,1.17
2023-04-25T06:54:41.817Z,1.13
2023-04-25T06:58:04.963Z,1.40
2023-04-25T07:01:28.530Z,1.63
2023-04-25T07:04:34.998Z,1.35
2023-04-25T07:07:41.378Z,1.42
2023-04-25T07:10:49.599Z,1.20
2023-04-25T07:13:54.538Z,1.30
2023-04-25T07:16:59.145Z,1.40
2023-04-25T07:20:07.089Z,1.15
2023-04-25T07:23:11.830Z,1.45
2023-04-25T07:26:17.831Z,1.48
2023-04-25T07:29:42.963Z,1.40
2023-04-25T07:32:47.532Z,1.50
2023-04-25T07:35:53.152Z,1.45
2023-04-25T07:38:58.667Z,1.02
2023-04-25T07:42:04.734Z,1.42
2023-04-25T07:45:10.325Z,1.70
2023-04-25T07:48:20.332Z,1.13
2023-04-25T07:51:27.010Z,1.30
2023-04-25T07:54:33.919Z,1.63
2023-04-25T07:57:45.317Z,1.45
2023-04-25T08:00:50.860Z,1.20
2023-04-25T08:04:10.684Z,1.33
2023-04-25T08:07:27.982Z,1.45
2023-04-25T08:10:35.532Z,1.10
2023-04-25T08:13:40.638Z,1.15
2023-04-25T08:16:45.623Z,1.15
2023-04-25T08:19:51.429Z,1.20
2023-04-25T08:23:03.377Z,0.98
2023-04-25T08:26:22.098Z,0.88
2023-04-25T08:29:29.562Z,1.13
2023-04-25T08:32:34.836Z,1.27
2023-04-25T08:35:57.158Z,1.23
2023-04-25T08:39:02.890Z,1.00
2023-04-25T08:42:08.909Z,1.30
2023-04-25T08:45:14.451Z,1.00
2023-04-25T08:48:22.236Z,1.20
2023-04-25T08:51:28.972Z,1.10
2023-04-25T08:54:36.833Z,1.08
2023-04-25T08:57:45.762Z,1.00
2023-04-25T09:00:52.555Z,1.35
2023-04-25T09:03:59.928Z,1.02
2023-04-25T09:07:04.616Z,0.82
2023-04-25T09:10:10.180Z,1.30
2023-04-25T09:13:27.766Z,1.00
2023-04-25T09:16:56.680Z,0.63
2023-04-25T09:20:21.605Z,0.85
2023-04-25T09:23:26.216Z,1.45
2023-04-25T09:26:30.794Z,1.10
2023-04-25T09:29:43.065Z,1.00
2023-04-25T09:32:48.609Z,1.05
2023-04-25T09:35:56.564Z,0.95
2023-04-25T09:39:20.527Z,1.00
2023-04-25T09:42:35.439Z,1.23
2023-04-25T09:45:46.864Z,1.20
2023-04-25T09:48:54.893Z,0.98
2023-04-25T09:52:19.524Z,1.00
2023-04-25T09:55:48.702Z,0.93
2023-04-25T09:58:55.978Z,0.75
2023-04-25T10:02:00.792Z,1.13
2023-04-25T10:05:13.703Z,0.80
2023-04-25T10:08:20.986Z,0.80
2023-04-25T10:11:27.253Z,0.82
2023-04-25T10:14:32.633Z,0.77
2023-04-25T10:17:37.300Z,0.63
2023-04-25T10:20:42.102Z,0.75
2023-04-25T10:23:47.339Z,0.70
2023-04-25T10:26:52.757Z,0.80
2023-04-25T10:30:09.915Z,1.13
2023-04-25T10:33:19.660Z,1.35
2023-04-25T10:36:28.134Z,0.90
2023-04-25T10:39:34.340Z,0.93
2023-04-25T10:42:38.652Z,1.10
2023-04-25T10:45:53.606Z,0.82
2023-04-25T10:49:03.699Z,1.23
2023-04-25T10:52:29.267Z,1.27
2023-04-25T10:55:51.654Z,0.80
2023-04-25T10:59:17.734Z,0.77
2023-04-25T11:02:26.960Z,1.60
2023-04-25T11:05:43.952Z,1.00
2023-04-25T11:08:56.295Z,0.90
2023-04-25T11:12:01.772Z,0.93
2023-04-25T11:15:08.577Z,0.90
2023-04-25T11:18:17.746Z,1.30
2023-04-25T11:21:22.550Z,0.70
2023-04-25T11:24:35.957Z,1.02
2023-04-25T11:27:55.346Z,0.90
2023-04-25T11:31:00.323Z,0.82
2023-04-25T11:34:05.399Z,1.00
2023-04-25T11:37:10.241Z,0.90
2023-04-25T11:40:15.474Z,1.10
2023-04-25T11:43:23.932Z,0.70
2023-04-25T11:46:28.846Z,0.70
2023-04-25T11:49:34.101Z,1.00
2023-04-25T11:52:47.038Z,0.80
2023-04-25T11:55:52.047Z,0.80
2023-04-25T11:59:05.475Z,0.98
2023-04-25T12:02:09.911Z,1.00
2023-04-25T12:05:31.107Z,1.10
2023-04-25T12:08:37.116Z,1.08
2023-04-25T12:11:47.032Z,1.00
2023-04-25T12:14:52.182Z,1.33
2023-04-25T12:17:56.898Z,0.82
2023-04-25T12:21:01.468Z,0.90
2023-04-25T12:24:26.824Z,1.00
2023-04-25T12:27:34.862Z,0.85
2023-04-25T12:31:06.804Z,0.80
2023-04-25T12:34:11.552Z,0.50
2023-04-25T12:37:16.704Z,1.10
2023-04-25T12:40:21.398Z,0.90
2023-04-25T12:43:26.400Z,1.02
2023-04-25T12:46:31.316Z,1.27
2023-04-25T12:49:36.243Z,1.10
2023-04-25T12:52:40.384Z,0.90
2023-04-25T12:55:46.984Z,1.23
2023-04-25T12:58:51.382Z,1.00
2023-04-25T13:01:55.943Z,1.00
2023-04-25T13:05:00.528Z,1.20
2023-04-25T13:08:05.622Z,1.00
2023-04-25T13:11:10.560Z,0.90
2023-04-25T13:14:14.811Z,0.80
2023-04-25T13:17:19.421Z,0.80
2023-04-25T13:20:24.512Z,1.15
2023-04-25T13:23:30.389Z,0.90
2023-04-25T13:26:35.359Z,0.90
2023-04-25T13:29:41.430Z,0.73
2023-04-25T13:32:45.991Z,0.68
2023-04-25T13:35:58.030Z,0.93
2023-04-25T13:39:02.663Z,0.70
2023-04-25T13:42:07.098Z,0.80
2023-04-25T13:45:11.603Z,0.70
2023-04-25T13:48:16.148Z,1.30
2023-04-25T13:51:21.617Z,0.90
2023-04-25T13:54:26.849Z,1.40
2023-04-25T13:57:35.259Z,0.93
2023-04-25T14:00:44.110Z,0.90
2023-04-25T14:03:49.050Z,1.13
2023-04-25T14:06:53.676Z,1.05
2023-04-25T14:09:58.909Z,0.90
2023-04-25T14:13:04.576Z,0.88
2023-04-25T14:16:09.093Z,0.88
2023-04-25T14:19:13.787Z,0.77
2023-04-25T14:22:18.675Z,0.65
2023-04-25T14:25:24.246Z,0.95
2023-04-25T14:28:28.926Z,0.75
2023-04-25T14:31:33.552Z,1.33
2023-04-25T14:34:38.191Z,1.00
2023-04-25T14:37:43.041Z,0.70
2023-04-25T14:40:47.790Z,0.80
2023-04-25T14:43:52.792Z,0.80
2023-04-25T14:46:57.564Z,0.90
2023-04-25T14:50:02.903Z,1.08
2023-04-25T14:53:09.425Z,0.77
2023-04-25T14:56:14.204Z,0.82
2023-04-25T14:59:18.997Z,1.13
2023-04-25T15:02:25.511Z,0.90
2023-04-25T15:05:30.119Z,1.13
2023-04-25T15:08:35.222Z,1.13
2023-04-25T15:11:40.021Z,1.17
2023-04-25T15:14:44.642Z,1.00
2023-04-25T15:17:49.573Z,1.10
2023-04-25T15:20:54.660Z,1.33
2023-04-25T15:23:59.369Z,0.85
2023-04-25T15:27:05.464Z,1.00
2023-04-25T15:30:17.676Z,0.90
2023-04-25T15:33:22.654Z,0.90
2023-04-25T15:36:27.720Z,0.60
2023-04-25T15:39:32.188Z,0.90
2023-04-25T15:42:41.425Z,0.75
2023-04-25T15:45:46.663Z,1.00
2023-04-25T15:48:51.752Z,1.00
2023-04-25T15:51:57.230Z,1.02
2023-04-25T15:55:04.698Z,0.88
2023-04-25T15:58:11.460Z,1.00
2023-04-25T16:01:17.458Z,0.95
2023-04-25T16:04:22.351Z,1.08
2023-04-25T16:07:27.009Z,0.98
2023-04-25T16:10:31.223Z,1.30
2023-04-25T16:13:35.901Z,0.90
2023-04-25T16:16:40.846Z,1.00
2023-04-25T16:19:45.873Z,1.08
2023-04-25T16:22:50.516Z,1.60
2023-04-25T16:25:55.168Z,0.70
2023-04-25T16:29:00.303Z,0.80
2023-04-25T16:32:05.926Z,0.82
2023-04-25T16:35:10.991Z,0.90
2023-04-25T16:38:16.680Z,1.35
2023-04-25T16:41:21.088Z,0.80
2023-04-25T16:44:25.517Z,0.98
2023-04-25T16:47:29.925Z,1.08
2023-04-25T16:50:34.212Z,1.00
2023-04-25T16:53:38.672Z,0.90
2023-04-25T16:56:43.226Z,1.65
2023-04-25T16:59:48.009Z,1.15
2023-04-25T17:02:52.861Z,0.90
2023-04-25T17:05:57.809Z,1.00
2023-04-25T17:09:02.324Z,1.10
2023-04-25T17:12:08.069Z,1.33
2023-04-25T17:15:12.722Z,0.90
2023-04-25T17:18:17.868Z,1.05
2023-04-25T17:21:22.650Z,1.00
2023-04-25T17:24:27.279Z,0.85
2023-04-25T17:27:32.193Z,0.90
2023-04-25T17:30:36.744Z,1.00
2023-04-25T17:33:41.710Z,0.90
2023-04-25T17:36:46.525Z,1.02
2023-04-25T17:39:51.207Z,0.98
2023-04-25T17:42:55.576Z,5.75
2023-04-25T17:46:00.187Z,7.07
2023-04-25T17:49:04.943Z,4.65
2023-04-25T17:52:09.693Z,4.07
2023-04-25T17:55:14.532Z,2.80
2023-04-25T17:58:19.197Z,1.85
2023-04-25T18:01:23.897Z,1.45
2023-04-25T18:04:29.116Z,1.33
2023-04-25T18:07:33.347Z,1.27
2023-04-25T18:10:38.922Z,1.15
2023-04-25T18:13:44.061Z,1.25
2023-04-25T18:16:53.636Z,0.90
2023-04-25T18:19:58.150Z,0.85
2023-04-25T18:23:02.884Z,0.70
2023-04-25T18:26:08.153Z,0.80
2023-04-25T18:29:25.454Z,1.08
2023-04-25T18:32:37.756Z,0.77
2023-04-25T18:35:51.501Z,0.90
2023-04-25T18:42:13.047Z,1.00
2023-04-25T18:45:17.921Z,0.90
2023-04-25T18:48:22.754Z,0.60
2023-04-25T18:51:29.679Z,0.80
2023-04-25T18:54:33.919Z,0.90
2023-04-25T18:57:39.115Z,0.98
2023-04-25T19:00:43.906Z,1.10
2023-04-25T19:03:58.851Z,0.73
2023-04-25T19:07:04.213Z,1.00
2023-04-25T19:10:09.674Z,1.20
2023-04-25T19:13:14.243Z,0.88
2023-04-25T19:16:19.185Z,2.53
2023-04-25T19:19:23.931Z,3.25
2023-04-25T19:22:28.715Z,2.35
2023-04-25T19:25:34.566Z,3.30
2023-04-25T19:28:39.323Z,2.92
2023-04-25T19:31:45.531Z,2.20
2023-04-25T19:34:50.527Z,1.73
2023-04-25T19:37:55.391Z,1.33
2023-04-25T19:41:01.157Z,1.33
2023-04-25T19:44:08.591Z,1.20
2023-04-25T19:47:13.432Z,1.20
2023-04-25T19:50:18.376Z,1.45
2023-04-25T19:53:23.101Z,1.08
2023-04-25T19:56:28.146Z,1.50
2023-04-25T19:59:33.083Z,2.80
2023-04-25T20:02:38.710Z,2.08
2023-04-25T20:05:43.463Z,1.58
2023-04-25T20:08:48.871Z,1.70
2023-04-25T20:11:54.049Z,1.23
2023-04-25T20:14:58.973Z,1.42
2023-04-25T20:18:04.506Z,1.30
2023-04-25T20:21:09.420Z,1.40
2023-04-25T20:24:14.115Z,1.17
2023-04-25T20:27:18.856Z,1.10
2023-04-25T20:30:24.112Z,1.20
2023-04-25T20:33:28.653Z,1.20
2023-04-25T20:36:33.930Z,1.00
2023-04-25T20:39:38.952Z,1.25
2023-04-25T20:42:43.915Z,1.00
2023-04-25T20:45:48.604Z,0.90
2023-04-25T20:48:53.719Z,1.23
2023-04-25T20:51:59.224Z,1.00
2023-04-25T20:55:05.428Z,1.38
2023-04-25T20:58:10.203Z,1.13
2023-04-25T21:01:15.160Z,1.02
2023-04-25T21:04:20.448Z,1.15
2023-04-25T21:07:25.248Z,1.10
2023-04-25T21:10:30.184Z,1.13
2023-04-25T21:13:34.684Z,1.30
2023-04-25T21:16:40.895Z,1.42
2023-04-25T21:19:45.487Z,1.10
2023-04-25T21:22:54.254Z,1.40
2023-04-25T21:25:59.322Z,1.15
2023-04-25T21:29:04.400Z,1.20
2023-04-25T21:32:09.520Z,1.27
2023-04-25T21:35:15.159Z,1.85
2023-04-25T21:38:21.432Z,1.75
2023-04-25T21:41:26.326Z,1.25
2023-04-25T21:44:33.065Z,1.40
2023-04-25T21:47:37.999Z,1.25
2023-04-25T21:50:42.509Z,1.50
2023-04-25T21:53:47.416Z,1.60
2023-04-25T21:56:52.177Z,1.38
2023-04-25T21:59:56.968Z,1.50
2023-04-25T22:03:01.755Z,1.50
2023-04-25T22:06:07.114Z,1.55
2023-04-25T22:09:12.788Z,1.15
2023-04-25T22:12:17.303Z,1.60
2023-04-25T22:15:23.989Z,1.58
2023-04-25T22:18:29.083Z,2.22
2023-04-25T22:21:33.894Z,1.38
2023-04-25T22:24:40.252Z,1.63
2023-04-25T22:27:48.288Z,1.40
2023-04-25T22:30:53.759Z,1.73
2023-04-25T22:33:59.198Z,1.55
2023-04-25T22:37:04.687Z,1.65
2023-04-25T22:40:10.517Z,1.55
2023-04-25T22:43:15.878Z,1.92
2023-04-25T22:46:21.641Z,1.45
2023-04-25T22:49:26.294Z,1.60
2023-04-25T22:52:30.701Z,1.75
2023-04-25T22:55:36.709Z,2.13
2023-04-25T22:58:42.715Z,1.55
2023-04-25T23:01:49.983Z,2.22
2023-04-25T23:04:54.976Z,1.70
2023-04-25T23:07:59.782Z,1.70
2023-04-25T23:11:10.288Z,1.40
2023-04-25T23:14:14.940Z,1.65
2023-04-25T23:17:20.556Z,1.45
2023-04-25T23:20:24.935Z,1.50
2023-04-25T23:23:30.152Z,1.60
2023-04-25T23:26:34.668Z,1.80
2023-04-25T23:29:40.576Z,2.10
2023-04-25T23:32:45.101Z,1.60
2023-04-25T23:35:49.456Z,1.80
2023-04-25T23:38:55.873Z,2.00
2023-04-25T23:42:00.572Z,1.92
2023-04-25T23:45:07.118Z,1.63
2023-04-25T23:48:11.722Z,2.13
2023-04-25T23:51:16.790Z,1.75
2023-04-25T23:54:21.157Z,1.70
2023-04-25T23:57:25.426Z,1.88
